Wheaton, Missouri
Current Conditions -  °F | °C
As of 12:15 AM on Friday 19 Dec 2014 (Local Time) from KHFJ Reporting Station
Haze Haze  
Wind Chill: 36°   Ceiling: 200
Heat Index: 36°   Visibility: 1mi
Dew Point: 36°   Wind: 3mph
Humidity: 100%   Direction: 50°NE
Pressure: 30.2"   Gusts: NA
Location:  36.76°N, 94.06°W
Report Text: KHFJ 190615Z AUTO 05003KT 1SM BR OVC002 02/02 A3020 RMK AO2
Loading
Personal Weather Stations






























Interactive Weather Map New forecast layout! Learn more

10-Day Weather Forecast

Advertisements
Track Severe Weather on mobile